Time;durP1;ratioP1;P1;durP2;ratioP2;P2;SDS_P1;SDS_P2;PMS_P1;PMS_P2;Temp;Humidity;BMP_temperature;BMP_pressure;BME280_temperature;BME280_humidity;BME280_pressure;Samples;Min_cycle;Max_cycle;Signal;HPM_P1;HPM_P2
2023/08/15 00:01:09;;;;;;;9.50;8.60;;;21.40;99.90;;;21.31;95.19;97844.19;4936386;29;20474;-70
2023/08/15 00:03:37;;;;;;;8.93;8.03;;;21.30;99.90;;;21.23;95.55;97840.13;4946054;29;20516;-69
2023/08/15 00:06:04;;;;;;;10.10;8.20;;;21.20;99.90;;;21.06;96.16;97823.28;4951995;28;20450;-69
2023/08/15 00:08:31;;;;;;;8.20;7.50;;;21.20;99.90;;;21.13;96.64;97842.97;4942557;29;20457;-70
2023/08/15 00:11:00;;;;;;;9.50;8.60;;;21.10;99.90;;;21.09;96.33;97839.19;4938325;28;20519;-69
2023/08/15 00:13:27;;;;;;;9.97;9.03;;;21.00;99.90;;;21.09;96.41;97844.66;4951607;29;20766;-69
2023/08/15 00:15:54;;;;;;;9.50;8.70;;;21.00;99.90;;;21.09;96.44;97839.19;4945132;29;20462;-67
2023/08/15 00:18:21;;;;;;;8.77;7.97;;;21.00;99.90;;;21.03;97.08;97841.16;4945045;29;20457;-70
2023/08/15 00:20:49;;;;;;;9.07;8.17;;;21.00;99.90;;;21.01;97.79;97848.06;4945959;29;20506;-70
2023/08/15 00:23:16;;;;;;;11.60;8.30;;;20.90;99.90;;;20.87;98.00;97845.97;4943772;28;20458;-69
2023/08/15 00:25:43;;;;;;;11.97;9.17;;;20.90;99.90;;;20.81;98.15;97841.63;4948932;28;20467;-70
2023/08/15 00:28:12;;;;;;;11.10;8.63;;;20.80;99.90;;;20.81;98.63;97836.13;4934195;29;21027;-69
2023/08/15 00:30:39;;;;;;;9.27;8.47;;;20.70;99.90;;;20.73;98.53;97842.22;4934600;29;20453;-68
2023/08/15 00:33:06;;;;;;;8.70;7.90;;;20.60;99.90;;;20.71;99.30;97847.19;4950786;29;20518;-70
2023/08/15 00:35:34;;;;;;;9.37;8.57;;;20.60;99.90;;;20.73;99.20;97848.50;4934527;29;20457;-70
2023/08/15 00:38:01;;;;;;;8.70;7.80;;;20.60;99.90;;;20.65;99.51;97844.44;4948564;28;20459;-68
2023/08/15 00:40:28;;;;;;;8.40;7.70;;;20.50;99.90;;;20.64;99.40;97837.31;4943851;29;20454;-70
2023/08/15 00:42:55;;;;;;;8.43;7.80;;;20.50;99.90;;;20.74;97.76;97838.38;4953029;28;20478;-69
2023/08/15 00:45:23;;;;;;;8.60;7.90;;;20.60;99.90;;;20.78;97.50;97843.00;4944482;29;20450;-72
2023/08/15 00:47:51;;;;;;;9.50;8.70;;;20.60;99.90;;;20.67;98.69;97842.22;4953517;28;20484;-70
2023/08/15 00:50:19;;;;;;;8.87;8.17;;;20.60;99.90;;;20.65;98.87;97841.72;4945073;28;20476;-71
2023/08/15 00:52:46;;;;;;;9.80;8.90;;;20.60;99.90;;;20.56;99.08;97840.69;4944650;28;20448;-70
2023/08/15 00:55:13;;;;;;;9.13;8.23;;;20.50;99.90;;;20.56;99.48;97834.38;4950576;28;20481;-70
2023/08/15 00:57:40;;;;;;;9.07;8.17;;;20.40;99.90;;;20.55;98.66;97839.06;4936572;29;20532;-70
2023/08/15 01:00:09;;;;;;;9.50;8.60;;;20.50;99.90;;;20.39;99.53;97839.13;4964521;28;20454;-71
2023/08/15 01:02:37;;;;;;;9.30;8.40;;;20.30;99.90;;;20.34;100.00;97835.63;4941279;29;20458;-70
2023/08/15 01:05:06;;;;;;;8.30;7.60;;;20.30;99.90;;;20.36;100.00;97831.47;4941750;29;20476;-71
2023/08/15 01:07:33;;;;;;;8.70;7.90;;;20.20;99.90;;;20.41;99.71;97840.78;4933583;29;21033;-70
2023/08/15 01:10:01;;;;;;;8.73;7.83;;;20.30;99.90;;;20.29;100.00;97847.44;4933797;29;20527;-70
2023/08/15 01:12:37;;;;;;;11.90;8.73;;;20.20;99.90;;;20.26;100.00;97838.97;4947937;28;20459;-69
2023/08/15 01:15:08;;;;;;;10.10;9.17;;;20.20;99.90;;;20.37;99.88;97840.53;4949364;29;20459;-69
2023/08/15 01:17:44;;;;;;;8.27;7.43;;;20.20;99.90;;;20.35;99.47;97840.81;4965864;28;20459;-69
2023/08/15 01:20:18;;;;;;;9.20;8.40;;;20.30;99.90;;;20.31;99.79;97831.53;4952710;28;21018;-70
2023/08/15 01:22:48;;;;;;;9.70;8.80;;;20.30;99.90;;;20.37;98.86;97841.34;4938762;28;20450;-68
2023/08/15 01:25:17;;;;;;;9.27;7.50;;;20.30;99.90;;;20.34;98.72;97838.38;4933585;29;20456;-69
2023/08/15 01:27:44;;;;;;;9.03;8.00;;;20.30;99.90;;;20.33;98.59;97834.00;4933426;29;20990;-69
2023/08/15 01:30:15;;;;;;;8.23;7.43;;;20.30;99.90;;;20.38;98.27;97842.19;4943655;28;20495;-69
2023/08/15 01:32:52;;;;;;;8.83;8.00;;;20.30;99.90;;;20.34;98.73;97841.91;4946790;28;20450;-69
2023/08/15 01:35:29;;;;;;;9.00;8.27;;;20.20;99.90;;;20.29;98.77;97831.00;4939535;29;20465;-69
2023/08/15 01:38:04;;;;;;;8.67;7.97;;;20.20;99.90;;;20.23;99.03;97830.19;4933491;29;20458;-69
2023/08/15 01:40:36;;;;;;;8.30;7.60;;;20.10;99.90;;;20.18;99.64;97822.00;4932620;28;20456;-70
2023/08/15 01:43:04;;;;;;;8.00;7.30;;;20.00;99.90;;;20.12;99.79;97823.13;4946546;29;20544;-71
2023/08/15 01:45:32;;;;;;;9.53;8.63;;;20.00;99.90;;;20.07;100.00;97814.94;4939953;29;20454;-70
2023/08/15 01:48:00;;;;;;;8.27;7.47;;;19.90;99.90;;;20.04;100.00;97819.06;4938508;29;20578;-69
2023/08/15 01:50:27;;;;;;;8.43;7.57;;;19.90;99.90;;;19.98;100.00;97822.94;4949396;28;21269;-69
2023/08/15 01:52:54;;;;;;;8.43;7.63;;;19.80;99.90;;;19.94;100.00;97819.09;4952934;28;20992;-69
2023/08/15 01:55:21;;;;;;;8.70;7.57;;;19.80;99.90;;;20.04;100.00;97816.31;4943674;29;20508;-71
2023/08/15 01:57:50;;;;;;;9.17;8.37;;;19.80;99.90;;;20.26;98.83;97817.84;4946656;28;20525;-69
2023/08/15 02:00:17;;;;;;;8.87;8.17;;;20.10;99.90;;;20.29;98.27;97806.31;4939952;29;20465;-69
2023/08/15 02:02:44;;;;;;;8.43;7.73;;;20.20;99.90;;;20.14;99.02;97814.63;4932437;29;20525;-69
2023/08/15 02:05:13;;;;;;;8.50;7.60;;;20.10;99.90;;;20.06;99.83;97805.88;4939694;29;20460;-70
2023/08/15 02:07:40;;;;;;;8.33;7.50;;;20.00;99.90;;;20.06;99.32;97808.63;4947612;28;20878;-69
2023/08/15 02:10:08;;;;;;;8.73;7.80;;;20.00;99.90;;;19.99;99.38;97805.38;4933152;29;20459;-70
2023/08/15 02:12:36;;;;;;;8.80;8.10;;;20.00;99.90;;;20.03;99.04;97809.19;4944470;29;20458;-68
2023/08/15 02:15:05;;;;;;;11.63;7.70;;;20.00;99.90;;;19.98;99.20;97806.47;4944404;28;20473;-68
2023/08/15 02:17:33;;;;;;;8.90;8.10;;;19.90;99.90;;;19.98;99.39;97805.66;4942581;29;20488;-69
2023/08/15 02:20:00;;;;;;;8.20;7.60;;;19.90;99.90;;;20.04;98.72;97810.81;4950686;29;20456;-70
2023/08/15 02:22:27;;;;;;;8.63;7.73;;;19.90;99.90;;;19.95;98.69;97802.38;4949934;29;20560;-70
2023/08/15 02:24:54;;;;;;;8.00;7.30;;;19.90;99.90;;;19.90;99.23;97807.03;4950837;29;20463;-71
2023/08/15 02:27:21;;;;;;;7.13;6.53;;;19.90;99.90;;;19.97;98.99;97810.34;4934183;29;21052;-69
2023/08/15 02:29:50;;;;;;;8.60;7.70;;;19.90;99.90;;;19.93;99.07;97806.50;4933040;29;20466;-70
2023/08/15 02:32:19;;;;;;;8.60;7.80;;;19.90;99.90;;;19.84;100.00;97799.94;4932016;29;20541;-68
2023/08/15 02:34:46;;;;;;;8.47;7.67;;;19.80;99.90;;;19.77;100.00;97805.72;4937978;29;20511;-69
2023/08/15 02:37:15;;;;;;;7.53;6.93;;;19.70;99.90;;;19.87;99.68;97800.22;4942917;28;20462;-69
2023/08/15 02:39:42;;;;;;;8.90;8.17;;;19.80;99.90;;;19.78;100.00;97810.91;4940175;28;20471;-69
2023/08/15 02:42:09;;;;;;;8.77;7.30;;;19.70;99.90;;;19.68;100.00;97805.50;4931586;29;20541;-69
2023/08/15 02:44:37;;;;;;;7.60;7.10;;;19.60;99.90;;;19.73;100.00;97805.47;4932966;29;20465;-69
2023/08/15 02:47:04;;;;;;;8.40;7.53;;;19.70;99.90;;;19.59;100.00;97804.44;4931410;29;20476;-68
2023/08/15 02:49:32;;;;;;;8.93;8.23;;;19.50;99.90;;;19.56;100.00;97821.44;4932524;29;20477;-69
2023/08/15 02:52:00;;;;;;;8.97;8.00;;;19.50;99.90;;;19.52;100.00;97816.50;4940910;29;20465;-69
2023/08/15 02:54:27;;;;;;;9.83;8.97;;;19.50;99.90;;;19.39;100.00;97817.09;4944516;29;20466;-70
2023/08/15 02:56:54;;;;;;;9.60;8.60;;;19.40;99.90;;;19.39;100.00;97819.84;4949437;28;20454;-68
2023/08/15 02:59:21;;;;;;;9.50;8.60;;;19.40;99.90;;;19.40;100.00;97818.75;4965505;28;20469;-69
2023/08/15 03:01:49;;;;;;;8.93;8.03;;;19.30;99.90;;;19.56;100.00;97810.47;4955611;28;20499;-70
2023/08/15 03:04:16;;;;;;;11.07;8.40;;;19.40;99.90;;;19.64;100.00;97802.50;4937501;29;20534;-72
2023/08/15 03:06:45;;;;;;;8.60;7.80;;;19.50;99.90;;;19.68;100.00;97802.75;4936583;29;20459;-69
2023/08/15 03:09:14;;;;;;;9.17;8.27;;;19.50;99.90;;;19.61;100.00;97794.84;4935987;29;20449;-69
2023/08/15 03:11:41;;;;;;;9.67;8.87;;;19.60;99.90;;;19.62;100.00;97793.75;4947242;29;20542;-68
2023/08/15 03:14:08;;;;;;;8.67;7.87;;;19.70;99.90;;;19.67;100.00;97793.69;4954581;28;20535;-70
2023/08/15 03:16:35;;;;;;;9.50;8.50;;;19.70;99.90;;;19.73;100.00;97793.69;4941638;29;20470;-70
2023/08/15 03:19:02;;;;;;;7.40;6.80;;;19.60;99.90;;;19.61;100.00;97797.56;4947899;28;20465;-70
2023/08/15 03:21:31;;;;;;;8.17;7.47;;;19.60;99.90;;;19.53;100.00;97809.09;4943421;28;20527;-70
2023/08/15 03:23:59;;;;;;;7.80;7.07;;;19.50;99.90;;;19.47;100.00;97802.81;4950493;29;20451;-69
2023/08/15 03:26:28;;;;;;;8.63;7.90;;;19.40;99.90;;;19.43;100.00;97803.69;4953610;29;20568;-69
2023/08/15 03:28:57;;;;;;;8.57;7.90;;;19.40;99.90;;;19.41;100.00;97803.94;4940424;28;20493;-70
2023/08/15 03:31:24;;;;;;;8.83;8.10;;;19.30;99.90;;;19.33;100.00;97815.47;4943829;29;20459;-69
2023/08/15 03:33:51;;;;;;;8.80;7.90;;;19.30;99.90;;;19.28;100.00;97816.31;4935413;29;20462;-69
2023/08/15 03:36:18;;;;;;;10.70;7.87;;;19.20;99.90;;;19.24;100.00;97821.53;4944775;29;20496;-68
2023/08/15 03:38:45;;;;;;;9.07;8.27;;;19.20;99.90;;;19.20;100.00;97822.34;4941565;28;20941;-68
2023/08/15 03:41:14;;;;;;;9.40;8.10;;;19.10;99.90;;;19.21;100.00;97811.13;4944055;29;20488;-70
2023/08/15 03:43:41;;;;;;;8.80;8.00;;;19.20;99.90;;;19.27;100.00;97820.16;4939641;29;20461;-70
2023/08/15 03:46:08;;;;;;;8.17;7.57;;;19.20;99.90;;;19.43;100.00;97817.38;4937146;28;20474;-70
2023/08/15 03:48:36;;;;;;;9.37;8.47;;;19.30;99.90;;;19.57;100.00;97818.44;4949413;28;20650;-70
2023/08/15 03:51:04;;;;;;;9.53;8.63;;;19.40;99.90;;;19.48;100.00;97817.34;4952163;29;20554;-69
2023/08/15 03:53:31;;;;;;;8.50;7.80;;;19.40;99.90;;;19.40;100.00;97816.00;4944136;29;20458;-68
2023/08/15 03:55:58;;;;;;;9.43;8.63;;;19.30;99.90;;;19.50;100.00;97812.41;4969200;28;20452;-71
2023/08/15 03:58:27;;;;;;;10.00;8.63;;;19.30;99.90;;;19.39;100.00;97822.56;4951712;28;20552;-69
2023/08/15 04:00:55;;;;;;;8.80;7.97;;;19.30;99.90;;;19.38;100.00;97832.69;4942107;29;20996;-69
2023/08/15 04:03:22;;;;;;;9.63;8.77;;;19.30;99.90;;;19.32;100.00;97843.94;4935924;29;20452;-67
2023/08/15 04:05:49;;;;;;;9.03;8.30;;;19.20;99.90;;;19.39;100.00;97844.50;4956276;28;20462;-68
2023/08/15 04:08:18;;;;;;;8.50;7.73;;;19.20;99.90;;;19.63;100.00;97839.22;4950972;28;20836;-69
2023/08/15 04:10:48;;;;;;;9.60;8.70;;;19.40;99.90;;;19.70;99.24;97838.91;4948589;28;20500;-69
2023/08/15 04:13:16;;;;;;;9.80;9.00;;;19.50;99.90;;;19.71;99.35;97832.34;4933817;29;20465;-69
2023/08/15 04:15:44;;;;;;;9.13;8.43;;;19.50;99.90;;;19.64;99.91;97840.03;4937106;29;20462;-71
2023/08/15 04:18:11;;;;;;;9.90;9.10;;;19.60;99.90;;;19.68;99.59;97846.59;4945860;28;20482;-70
2023/08/15 04:20:40;;;;;;;8.53;7.73;;;19.60;99.90;;;19.66;100.00;97848.81;4949383;28;20514;-71
2023/08/15 04:23:09;;;;;;;8.97;8.27;;;19.50;99.90;;;19.62;100.00;97842.22;4950433;28;20559;-73
2023/08/15 04:25:38;;;;;;;9.50;8.00;;;19.60;99.90;;;19.61;100.00;97846.06;4936591;29;20464;-69
2023/08/15 04:28:06;;;;;;;9.30;8.50;;;19.50;99.90;;;19.70;100.00;97849.03;4948574;29;20578;-69
2023/08/15 04:30:34;;;;;;;9.90;8.90;;;19.60;99.90;;;19.61;98.57;97766.59;4941910;29;20933;-69
2023/08/15 04:33:03;;;;;;;8.57;7.90;;;19.90;99.90;;;20.30;96.75;97840.84;4933510;29;20462;-70
2023/08/15 04:35:30;;;;;;;8.63;7.83;;;20.30;99.90;;;20.67;93.55;97836.75;4934353;29;20472;-68
2023/08/15 04:37:58;;;;;;;8.30;7.50;;;20.70;99.90;;;21.01;91.16;97837.06;4939397;29;21013;-69
2023/08/15 04:40:39;;;;;;;9.50;8.70;;;21.20;97.40;;;21.34;87.50;97823.56;4943201;28;20470;-70
2023/08/15 04:43:07;;;;;;;9.07;7.53;;;21.60;95.60;;;21.56;86.05;97841.44;4946453;29;20951;-70
2023/08/15 04:45:40;;;;;;;8.63;7.93;;;21.80;94.70;;;21.93;84.47;97835.25;4941196;29;20456;-69
2023/08/15 04:48:10;;;;;;;8.30;7.53;;;22.20;94.20;;;22.28;81.51;97832.31;4934046;29;20493;-69
2023/08/15 04:50:37;;;;;;;11.57;7.20;;;22.60;93.30;;;22.59;79.08;97839.31;4933922;29;20497;-70
2023/08/15 04:53:06;;;;;;;11.47;8.30;;;22.70;92.80;;;22.95;78.19;97846.19;4943046;28;20455;-68
2023/08/15 04:55:33;;;;;;;8.70;8.00;;;23.10;92.50;;;23.19;76.27;97846.88;4948987;29;20457;-69
2023/08/15 04:58:00;;;;;;;7.53;6.93;;;23.40;91.90;;;23.28;76.44;97844.28;4938140;28;20476;-68
2023/08/15 05:00:28;;;;;;;7.50;6.80;;;23.70;91.80;;;23.49;74.79;97852.97;4944177;29;20454;-69
2023/08/15 05:02:55;;;;;;;8.73;7.97;;;24.20;91.10;;;23.80;73.65;97859.81;4940343;28;20471;-69
2023/08/15 05:05:23;;;;;;;9.93;7.13;;;24.20;90.90;;;23.56;74.19;97860.84;4951331;29;20464;-70
2023/08/15 05:07:51;;;;;;;8.67;7.90;;;24.30;90.70;;;23.97;72.53;97869.44;4939298;28;20486;-69
2023/08/15 05:10:18;;;;;;;8.17;7.47;;;24.40;90.60;;;24.53;70.84;97870.19;4933536;29;20454;-69
2023/08/15 05:12:45;;;;;;;8.17;7.37;;;24.80;90.30;;;24.58;70.18;97872.81;4944159;28;20454;-71
2023/08/15 05:15:12;;;;;;;8.70;7.60;;;25.00;90.10;;;25.14;67.07;97861.56;4943558;28;20516;-71
2023/08/15 05:17:39;;;;;;;8.33;7.63;;;25.40;89.50;;;24.85;68.06;97871.13;4943560;29;20469;-69
2023/08/15 05:20:08;;;;;;;8.10;7.50;;;25.30;89.00;;;24.40;70.02;97877.34;4963304;28;20454;-69
2023/08/15 05:22:37;;;;;;;8.80;8.00;;;25.20;89.00;;;24.43;69.96;97879.53;4944353;29;20463;-69
2023/08/15 05:25:05;;;;;;;9.33;8.40;;;25.20;88.90;;;24.57;70.19;97885.00;4937446;28;20547;-69
2023/08/15 05:27:32;;;;;;;9.17;8.37;;;25.10;89.20;;;24.89;68.15;97877.63;4946825;29;20892;-69
2023/08/15 05:30:00;;;;;;;9.87;8.90;;;25.40;88.90;;;24.26;71.67;97882.91;4947645;28;20461;-68
2023/08/15 05:32:27;;;;;;;9.43;8.53;;;25.10;89.00;;;24.71;68.55;97887.69;4946339;28;20458;-68
2023/08/15 05:34:54;;;;;;;9.07;8.13;;;25.30;88.60;;;24.45;70.49;97888.31;4946581;28;20712;-70
2023/08/15 05:37:21;;;;;;;9.27;8.47;;;25.20;88.90;;;24.49;70.87;97885.72;4949916;28;20801;-69
2023/08/15 05:39:50;;;;;;;8.50;7.80;;;25.30;88.90;;;24.60;69.94;97880.81;4952217;28;20462;-68
2023/08/15 05:42:18;;;;;;;8.83;7.93;;;25.60;88.30;;;24.49;70.37;97882.94;4950083;28;20517;-70
2023/08/15 05:44:46;;;;;;;8.33;7.70;;;25.20;88.60;;;24.95;68.75;97874.78;4949312;28;20836;-70
2023/08/15 05:47:13;;;;;;;8.97;8.17;;;25.50;88.50;;;25.11;67.61;97878.78;4960438;28;20554;-70
2023/08/15 05:49:42;;;;;;;9.10;8.20;;;25.50;88.10;;;24.94;68.29;97878.63;4952097;28;20999;-72
2023/08/15 05:52:10;;;;;;;8.77;7.90;;;25.50;88.10;;;24.96;68.51;97879.16;4941663;28;20544;-69
2023/08/15 05:54:37;;;;;;;9.70;8.70;;;25.60;87.90;;;25.11;67.09;97884.31;4951781;28;20439;-69
2023/08/15 05:57:06;;;;;;;9.03;8.13;;;25.70;87.50;;;24.59;68.98;97888.25;4951733;28;20465;-70
2023/08/15 05:59:33;;;;;;;10.10;9.20;;;25.20;88.30;;;23.61;73.22;97879.25;4933194;29;20766;-69
2023/08/15 06:02:00;;;;;;;9.47;8.67;;;24.20;89.40;;;23.06;75.50;97886.22;4947050;29;20462;-69
2023/08/15 06:04:27;;;;;;;10.30;9.30;;;23.60;90.40;;;23.06;76.58;97902.75;4949140;29;20830;-71
2023/08/15 06:06:54;;;;;;;9.03;8.23;;;23.20;90.90;;;23.09;76.52;97912.38;4962390;28;20519;-70
2023/08/15 06:09:22;;;;;;;9.90;9.00;;;23.20;91.00;;;23.42;75.31;97918.69;4941538;29;20485;-69
2023/08/15 06:11:50;;;;;;;9.33;8.50;;;23.40;91.00;;;23.28;75.91;97926.16;4943323;28;20457;-70
2023/08/15 06:14:20;;;;;;;9.90;8.63;;;23.40;91.00;;;23.42;75.06;97918.69;4958750;28;20552;-68
2023/08/15 06:16:47;;;;;;;10.20;8.63;;;23.50;91.00;;;23.32;75.56;97916.13;4945707;28;20504;-70
2023/08/15 06:19:14;;;;;;;13.10;8.60;;;23.40;91.00;;;23.37;75.63;97904.22;4951206;29;20465;-69
2023/08/15 06:21:42;;;;;;;9.87;8.33;;;23.40;91.10;;;23.30;75.83;97907.38;4946499;29;20522;-69
2023/08/15 06:24:09;;;;;;;11.30;8.77;;;23.40;91.10;;;23.34;76.20;97905.63;4947770;29;20552;-72
2023/08/15 06:26:37;;;;;;;8.10;7.40;;;23.40;91.30;;;23.71;74.74;97912.13;4934552;29;20472;-70
2023/08/15 06:29:04;;;;;;;13.67;8.57;;;23.60;91.20;;;23.62;75.15;97905.69;4944461;29;21092;-70
2023/08/15 06:31:34;;;;;;;10.30;8.60;;;23.70;91.10;;;23.77;74.83;97910.06;4950000;28;20512;-71
2023/08/15 06:34:02;;;;;;;8.27;7.53;;;23.80;91.10;;;24.12;73.45;97904.19;4936296;29;20465;-71
2023/08/15 06:36:30;;;;;;;8.80;7.63;;;24.00;91.10;;;23.99;73.32;97906.63;4954373;29;20483;-70
2023/08/15 06:38:57;;;;;;;10.97;8.37;;;24.10;90.80;;;24.00;72.79;97913.75;4954274;29;21026;-69
2023/08/15 06:41:24;;;;;;;8.67;7.63;;;24.10;90.80;;;24.31;71.84;97913.16;4943162;28;20511;-69
2023/08/15 06:43:51;;;;;;;8.77;7.77;;;24.30;90.60;;;24.25;71.76;97919.91;4935937;29;20457;-70
2023/08/15 06:46:18;;;;;;;12.77;8.10;;;24.30;90.50;;;24.56;70.88;97924.78;4936169;29;20873;-70
2023/08/15 06:48:47;;;;;;;7.83;7.20;;;24.50;90.50;;;24.86;69.34;97928.00;4936344;29;20536;-70
2023/08/15 06:51:14;;;;;;;9.57;7.50;;;24.80;90.30;;;25.29;67.98;97923.13;4949661;29;20451;-69
2023/08/15 06:53:44;;;;;;;8.83;7.60;;;25.20;90.20;;;25.28;68.50;97904.91;4967924;28;20473;-70
2023/08/15 06:56:11;;;;;;;9.90;8.00;;;25.30;90.20;;;25.51;67.15;97918.72;4948877;29;20445;-69
2023/08/15 06:58:38;;;;;;;8.30;7.47;;;25.40;89.60;;;25.91;65.82;97921.50;4939952;29;20505;-69
2023/08/15 07:01:06;;;;;;;8.57;7.87;;;25.70;89.20;;;25.88;66.26;97916.63;4951430;28;20463;-70
2023/08/15 07:03:33;;;;;;;7.70;7.00;;;25.80;89.00;;;25.86;65.95;97919.69;4935986;29;20462;-69
2023/08/15 07:06:04;;;;;;;7.97;7.27;;;25.90;88.80;;;26.11;65.23;97916.53;4935831;29;20896;-69
2023/08/15 07:08:31;;;;;;;7.57;6.97;;;26.00;88.50;;;26.60;63.50;97930.34;4935843;29;20476;-70
2023/08/15 07:11:00;;;;;;;8.80;7.87;;;26.40;87.90;;;26.97;62.17;97930.06;4954768;28;20539;-71
2023/08/15 07:13:27;;;;;;;7.40;6.80;;;26.70;87.30;;;26.83;62.25;97925.47;4944558;28;20969;-69
2023/08/15 07:15:55;;;;;;;8.67;7.90;;;26.80;86.70;;;26.47;62.91;97926.59;4939762;29;20467;-70
2023/08/15 07:18:23;;;;;;;7.80;7.10;;;26.50;86.70;;;26.72;62.77;97930.53;4940072;28;20565;-68
2023/08/15 07:20:51;;;;;;;7.90;7.17;;;26.60;86.80;;;26.69;63.07;97924.81;4941339;28;20454;-70
2023/08/15 07:23:20;;;;;;;8.53;7.83;;;26.60;86.90;;;26.87;62.39;97917.38;4943844;29;20465;-72
2023/08/15 07:25:47;;;;;;;8.60;7.80;;;26.80;86.90;;;27.37;60.86;97937.38;4935630;29;20498;-69
2023/08/15 07:28:15;;;;;;;8.20;7.47;;;27.10;86.40;;;27.49;59.79;97943.06;4944950;29;20469;-69
2023/08/15 07:30:45;;;;;;;8.30;7.50;;;27.30;85.50;;;27.56;59.33;97937.03;4941827;28;20451;-72
2023/08/15 07:33:12;;;;;;;7.80;7.10;;;27.40;85.00;;;27.17;60.29;97955.50;4943251;29;20501;-69
2023/08/15 07:35:39;;;;;;;8.43;7.57;;;27.30;84.70;;;27.25;60.46;97938.84;4943036;28;20453;-69
2023/08/15 07:38:07;;;;;;;7.73;7.10;;;27.20;85.10;;;27.37;61.08;97934.59;4940792;29;20468;-71
2023/08/15 07:40:35;;;;;;;8.60;7.70;;;27.20;85.70;;;27.53;60.13;97932.97;4957472;28;20827;-71
2023/08/15 07:43:03;;;;;;;9.53;8.63;;;27.30;85.40;;;27.50;59.93;97922.50;4934020;29;20514;-71
2023/08/15 07:45:30;;;;;;;8.60;7.83;;;27.30;84.70;;;27.80;58.93;97921.78;4944801;29;20465;-71
2023/08/15 07:47:58;;;;;;;9.60;8.63;;;27.40;84.70;;;27.51;59.72;97923.28;4948107;28;20465;-70
2023/08/15 07:50:27;;;;;;;8.73;7.70;;;27.50;84.40;;;27.34;60.28;97935.25;4948611;29;20986;-70
2023/08/15 07:52:58;;;;;;;8.13;7.53;;;27.50;84.30;;;27.42;59.80;97946.34;4944720;29;20473;-69
2023/08/15 07:55:26;;;;;;;8.03;7.30;;;27.60;84.00;;;27.54;59.35;97944.88;4948214;28;20998;-70
2023/08/15 07:57:55;;;;;;;8.40;7.60;;;27.70;83.80;;;27.50;59.65;97944.69;4935644;29;20584;-70
2023/08/15 08:00:22;;;;;;;8.97;8.07;;;27.80;83.70;;;27.60;59.96;97935.22;4944349;29;20531;-69
2023/08/15 08:02:49;;;;;;;8.20;7.50;;;27.90;83.80;;;27.51;60.45;97931.63;4952600;29;20461;-70
2023/08/15 08:05:16;;;;;;;9.13;7.73;;;27.90;83.90;;;27.73;59.49;97936.16;4950615;29;20532;-71
2023/08/15 08:07:45;;;;;;;10.10;7.77;;;27.90;83.50;;;27.81;58.73;97938.09;4947472;29;20468;-71
2023/08/15 08:10:13;;;;;;;9.67;8.77;;;28.00;83.00;;;27.78;58.34;97932.38;4949697;29;20488;-69
2023/08/15 08:12:40;;;;;;;8.10;7.53;;;28.00;82.70;;;27.95;58.25;97937.06;4941401;29;20461;-70
2023/08/15 08:15:10;;;;;;;8.33;7.63;;;28.10;82.80;;;28.25;56.96;97940.69;4949610;28;20461;-70
2023/08/15 08:17:37;;;;;;;10.20;9.30;;;28.20;82.30;;;27.92;57.92;97944.09;4946153;29;20453;-69
2023/08/15 08:20:09;;;;;;;10.40;8.60;;;28.20;82.10;;;28.36;56.88;97945.88;4951959;29;20521;-69
2023/08/15 08:22:36;;;;;;;10.43;8.07;;;28.40;82.00;;;28.42;56.50;97945.34;4960428;28;20948;-70
2023/08/15 08:25:16;;;;;;;8.87;8.00;;;28.50;81.40;;;28.62;56.63;97942.94;4950274;28;20905;-70
2023/08/15 08:27:44;;;;;;;8.70;8.10;;;28.70;81.60;;;28.76;55.60;97941.88;4943132;29;20469;-68
2023/08/15 08:30:14;;;;;;;7.93;7.33;;;28.90;80.50;;;28.99;55.63;97942.38;4940957;29;20493;-69
2023/08/15 08:32:42;;;;;;;8.87;8.17;;;29.00;80.80;;;29.20;54.06;97933.19;4961091;28;20458;-70
2023/08/15 08:35:10;;;;;;;9.17;8.43;;;29.20;79.90;;;29.20;54.77;97935.97;4940857;28;20459;-70
2023/08/15 08:37:37;;;;;;;9.50;8.30;;;29.30;79.90;;;29.23;53.93;97944.44;4938865;29;20455;-69
2023/08/15 08:40:07;;;;;;;9.23;8.47;;;29.40;79.50;;;29.43;53.90;97949.53;4962976;28;20469;-70
2023/08/15 08:42:35;;;;;;;9.57;8.67;;;29.50;79.00;;;29.33;54.23;97948.75;4943990;29;20454;-69
2023/08/15 08:45:04;;;;;;;9.40;8.53;;;29.50;79.20;;;29.61;53.82;97942.63;4944844;28;20480;-68
2023/08/15 08:47:35;;;;;;;9.97;9.17;;;29.50;79.30;;;29.26;54.67;97942.94;4934430;29;20451;-71
2023/08/15 08:50:06;;;;;;;10.33;9.43;;;29.20;79.60;;;29.45;55.19;97950.81;4934336;29;20474;-70
2023/08/15 08:52:33;;;;;;;10.23;9.30;;;29.20;80.30;;;29.80;54.24;97932.91;4945162;29;20505;-70
2023/08/15 08:55:00;;;;;;;10.50;9.50;;;29.50;79.90;;;30.31;53.27;97931.81;4933167;29;20470;-72
2023/08/15 08:57:32;;;;;;;13.10;10.23;;;29.80;79.50;;;30.34;52.91;97931.94;4957314;28;20467;-70
2023/08/15 09:00:03;;;;;;;9.97;9.00;;;30.10;79.10;;;30.48;52.55;97934.34;4945550;29;20451;-70
2023/08/15 09:02:33;;;;;;;10.77;9.87;;;30.30;78.80;;;30.88;50.81;97929.19;4942239;29;20472;-70
2023/08/15 09:05:00;;;;;;;10.50;9.50;;;30.60;77.70;;;30.05;52.44;97928.22;4959924;28;20463;-70
2023/08/15 09:07:27;;;;;;;10.00;9.10;;;30.30;77.40;;;29.75;53.17;97930.34;4943134;29;20958;-70
2023/08/15 09:09:55;;;;;;;10.50;9.63;;;29.90;78.00;;;29.96;52.65;97922.75;4939839;28;20481;-70
2023/08/15 09:12:35;;;;;;;9.23;8.33;;;29.80;77.60;;;30.02;51.45;97928.06;4935395;29;20470;-69
2023/08/15 09:15:05;;;;;;;9.20;8.40;;;29.90;76.90;;;30.07;50.97;97930.66;4951746;29;20518;-70
2023/08/15 09:17:34;;;;;;;9.90;9.00;;;29.90;76.60;;;30.04;52.15;97931.34;4948736;28;20458;-70
2023/08/15 09:20:11;;;;;;;11.33;10.23;;;29.90;77.30;;;29.94;52.70;97933.38;4948630;28;20617;-69
2023/08/15 09:22:41;;;;;;;10.57;9.67;;;29.80;77.20;;;30.05;52.37;97931.00;4937922;29;20459;-70
2023/08/15 09:25:10;;;;;;;9.83;8.83;;;29.90;77.30;;;30.01;52.53;97920.88;4945940;29;20520;-70
2023/08/15 09:27:38;;;;;;;10.33;9.30;;;29.90;77.40;;;30.09;52.96;97928.31;4950539;28;20481;-71
2023/08/15 09:30:09;;;;;;;11.27;10.27;;;29.90;77.50;;;29.82;53.28;97923.06;4945422;28;20479;-71
2023/08/15 09:32:40;;;;;;;10.07;9.27;;;29.80;77.60;;;29.98;53.03;97933.50;4932985;29;20458;-70
2023/08/15 09:35:10;;;;;;;9.17;8.47;;;29.90;77.30;;;29.49;53.82;97931.44;4933894;29;21007;-68
2023/08/15 09:37:42;;;;;;;10.10;9.10;;;29.60;77.30;;;29.06;55.71;97933.47;4933554;29;20462;-69
2023/08/15 09:40:13;;;;;;;9.50;8.80;;;29.00;78.40;;;29.04;56.15;97925.50;4948293;28;20806;-69
2023/08/15 09:42:40;;;;;;;9.80;9.00;;;28.90;79.00;;;28.76;56.72;97878.75;4939341;29;20473;-70
2023/08/15 09:45:09;;;;;;;10.13;9.33;;;28.90;79.80;;;29.16;57.27;97937.81;4945518;28;20483;-70
2023/08/15 09:47:39;;;;;;;11.03;9.90;;;28.90;80.30;;;29.00;56.63;97930.09;4956904;28;20451;-69
2023/08/15 09:50:08;;;;;;;10.00;9.20;;;29.00;80.00;;;29.10;55.63;97928.84;4950964;29;20570;-71
2023/08/15 09:52:39;;;;;;;11.43;10.40;;;28.80;79.40;;;29.27;55.57;97933.44;4935488;29;20458;-69
2023/08/15 09:55:10;;;;;;;11.07;10.07;;;29.10;79.20;;;29.08;55.87;97933.94;4933492;29;20455;-69
2023/08/15 09:57:37;;;;;;;10.10;9.20;;;29.00;79.30;;;29.34;55.52;97938.47;4951624;29;20963;-68
2023/08/15 10:00:08;;;;;;;9.40;8.70;;;29.10;79.60;;;29.49;55.37;97934.22;4944948;28;20478;-71
2023/08/15 10:02:43;;;;;;;10.07;9.37;;;29.30;79.30;;;29.42;54.46;97923.69;4947064;29;20549;-70
2023/08/15 10:05:12;;;;;;;10.80;10.00;;;29.30;78.60;;;29.64;53.82;97930.78;4940684;29;20465;-70
2023/08/15 10:07:42;;;;;;;10.40;9.60;;;29.30;78.30;;;30.09;53.00;97922.75;4940054;29;20550;-71
2023/08/15 10:10:10;;;;;;;8.70;8.10;;;29.70;78.00;;;29.76;53.29;97923.63;4944227;28;20494;-68
2023/08/15 10:12:40;;;;;;;9.40;8.60;;;29.70;77.60;;;30.11;51.78;97931.59;4943814;29;20451;-69
2023/08/15 10:15:09;;;;;;;8.30;7.53;;;29.80;76.70;;;30.43;51.88;97920.66;4947945;29;20491;-69
2023/08/15 10:17:38;;;;;;;8.30;7.60;;;30.00;77.10;;;30.73;50.66;97930.72;4953205;29;20463;-70
2023/08/15 10:20:10;;;;;;;7.70;7.10;;;30.20;76.10;;;30.64;49.50;97928.06;4954794;28;20458;-72